createdAt,value
2022-12-18T00:01:23.148Z,-5.15
2022-12-18T00:03:50.240Z,-5.21
2022-12-18T00:06:17.645Z,-5.03
2022-12-18T00:08:45.338Z,-4.98
2022-12-18T00:11:17.466Z,-4.95
2022-12-18T00:13:44.827Z,-5.20
2022-12-18T00:16:14.436Z,-5.23
2022-12-18T00:18:42.105Z,-5.23
2022-12-18T00:21:11.093Z,-5.13
2022-12-18T00:23:39.325Z,-5.21
2022-12-18T00:26:10.779Z,-5.29
2022-12-18T00:28:37.463Z,-5.32
2022-12-18T00:31:06.944Z,-5.48
2022-12-18T00:33:33.691Z,-5.43
2022-12-18T00:36:09.989Z,-5.47
2022-12-18T00:38:36.791Z,-5.52
2022-12-18T00:41:03.705Z,-5.51
2022-12-18T00:43:30.440Z,-5.36
2022-12-18T00:45:57.075Z,-5.41
2022-12-18T00:48:23.631Z,-5.47
2022-12-18T00:50:51.136Z,-5.49
2022-12-18T00:53:18.193Z,-5.52
2022-12-18T00:55:45.976Z,-5.57
2022-12-18T00:58:14.936Z,-5.41
2022-12-18T01:00:42.020Z,-5.28
2022-12-18T01:03:10.312Z,-5.16
2022-12-18T01:05:40.952Z,-5.23
2022-12-18T01:08:07.643Z,-5.27
2022-12-18T01:10:34.224Z,-5.13
2022-12-18T01:13:00.780Z,-5.12
2022-12-18T01:15:27.372Z,-5.25
2022-12-18T01:17:54.420Z,-5.29
2022-12-18T01:20:21.610Z,-5.23
2022-12-18T01:22:48.190Z,-5.33
2022-12-18T01:25:14.722Z,-5.14
2022-12-18T01:27:41.301Z,-5.28
2022-12-18T01:30:08.336Z,-5.11
2022-12-18T01:32:34.943Z,-5.38
2022-12-18T01:35:01.479Z,-5.12
2022-12-18T01:37:28.056Z,-5.02
2022-12-18T01:39:55.547Z,-5.14
2022-12-18T01:42:26.462Z,-5.16
2022-12-18T01:45:13.299Z,-5.17
2022-12-18T01:47:41.833Z,-5.08
2022-12-18T01:50:13.868Z,-4.91
2022-12-18T01:52:43.240Z,-5.02
2022-12-18T01:55:11.233Z,-5.19
2022-12-18T01:57:39.511Z,-5.50
2022-12-18T02:00:10.647Z,-5.49
2022-12-18T02:02:37.628Z,-5.56
2022-12-18T02:05:04.922Z,-5.70
2022-12-18T02:07:41.545Z,-5.74
2022-12-18T02:10:37.422Z,-5.92
2022-12-18T02:13:14.064Z,-5.93
2022-12-18T02:15:48.721Z,-5.86
2022-12-18T02:18:22.063Z,-5.87
2022-12-18T02:21:05.705Z,-6.03
2022-12-18T02:24:03.472Z,-6.22
2022-12-18T02:26:32.543Z,-6.10
2022-12-18T02:29:17.357Z,-6.17
2022-12-18T02:31:47.935Z,-6.16
2022-12-18T02:34:15.778Z,-6.19
2022-12-18T02:36:44.948Z,-6.14
2022-12-18T02:39:13.482Z,-6.20
2022-12-18T02:41:40.481Z,-6.24
2022-12-18T02:44:12.696Z,-6.20
2022-12-18T02:46:43.433Z,-6.19
2022-12-18T02:49:31.334Z,-6.07
2022-12-18T02:52:34.749Z,-6.00
2022-12-18T02:55:29.364Z,-5.94
2022-12-18T02:58:05.367Z,-5.91
2022-12-18T03:00:37.948Z,-5.95
2022-12-18T03:03:10.848Z,-5.94
2022-12-18T03:05:44.098Z,-6.00
2022-12-18T03:08:23.735Z,-6.23
2022-12-18T03:11:11.339Z,-5.99
2022-12-18T03:13:44.288Z,-5.95
2022-12-18T03:16:16.172Z,-5.89
2022-12-18T03:18:53.039Z,-5.96
2022-12-18T03:21:23.961Z,-5.99
2022-12-18T03:23:52.479Z,-6.05
2022-12-18T03:26:22.081Z,-6.03
2022-12-18T03:28:54.419Z,-6.19
2022-12-18T03:31:24.556Z,-6.25
2022-12-18T03:34:02.088Z,-6.23
2022-12-18T03:36:28.807Z,-6.31
2022-12-18T03:38:55.325Z,-6.41
2022-12-18T03:41:55.431Z,-6.53
2022-12-18T03:44:33.985Z,-6.53
2022-12-18T03:47:14.433Z,-6.49
2022-12-18T03:50:07.124Z,-6.48
2022-12-18T03:52:41.780Z,-6.65
2022-12-18T03:55:10.324Z,-6.61
2022-12-18T03:57:37.880Z,-6.58
2022-12-18T04:00:09.133Z,-6.58
2022-12-18T04:02:39.125Z,-6.62
2022-12-18T04:05:10.840Z,-6.58
2022-12-18T04:07:39.277Z,-6.47
2022-12-18T04:10:07.934Z,-6.36
2022-12-18T04:12:34.472Z,-6.30
2022-12-18T04:15:00.986Z,-6.36
2022-12-18T04:17:27.536Z,-6.26
2022-12-18T04:19:54.094Z,-6.34
2022-12-18T04:22:20.630Z,-6.35
2022-12-18T04:24:47.125Z,-6.42
2022-12-18T04:27:13.668Z,-6.27
2022-12-18T04:29:40.320Z,-6.16
2022-12-18T04:32:06.851Z,-6.28
2022-12-18T04:34:33.372Z,-6.17
2022-12-18T04:36:59.867Z,-6.25
2022-12-18T04:39:26.437Z,-6.20
2022-12-18T04:41:53.398Z,-6.12
2022-12-18T04:44:19.869Z,-6.20
2022-12-18T04:46:46.360Z,-6.24
2022-12-18T04:49:13.391Z,-6.23
2022-12-18T04:51:39.921Z,-6.24
2022-12-18T04:54:06.442Z,-6.14
2022-12-18T04:56:33.311Z,-6.42
2022-12-18T04:58:59.791Z,-6.25
2022-12-18T05:01:32.579Z,-6.11
2022-12-18T05:04:01.679Z,-6.21
2022-12-18T05:06:28.288Z,-6.15
2022-12-18T05:08:54.777Z,-6.07
2022-12-18T05:11:21.464Z,-6.11
2022-12-18T05:13:48.029Z,-6.29
2022-12-18T05:16:15.376Z,-6.29
2022-12-18T05:18:42.050Z,-6.16
2022-12-18T05:21:08.681Z,-6.19
2022-12-18T05:23:35.731Z,-6.23
2022-12-18T05:26:04.902Z,-6.30
2022-12-18T05:28:33.063Z,-6.31
2022-12-18T05:31:03.093Z,-6.36
2022-12-18T05:33:32.545Z,-6.37
2022-12-18T05:36:01.627Z,-6.49
2022-12-18T05:38:30.437Z,-6.50
2022-12-18T05:40:57.658Z,-6.51
2022-12-18T05:43:24.831Z,-6.66
2022-12-18T05:45:52.911Z,-6.52
2022-12-18T05:48:20.610Z,-6.62
2022-12-18T05:50:48.540Z,-6.66
2022-12-18T05:53:17.152Z,-6.67
2022-12-18T05:55:44.693Z,-6.77
2022-12-18T05:58:13.408Z,-6.70
2022-12-18T06:00:43.674Z,-6.64
2022-12-18T06:03:11.751Z,-6.57
2022-12-18T06:05:40.664Z,-6.55
2022-12-18T06:08:07.571Z,-6.57
2022-12-18T06:10:34.493Z,-6.55
2022-12-18T06:13:01.825Z,-6.51
2022-12-18T06:15:28.645Z,-6.72
2022-12-18T06:17:55.187Z,-6.81
2022-12-18T06:20:21.948Z,-6.90
2022-12-18T06:22:48.560Z,-7.00
2022-12-18T06:25:15.134Z,-6.97
2022-12-18T06:27:41.774Z,-7.03
2022-12-18T06:30:10.221Z,-7.02
2022-12-18T06:32:36.902Z,-7.02
2022-12-18T06:35:03.551Z,-6.95
2022-12-18T06:37:32.433Z,-6.88
2022-12-18T06:39:59.013Z,-6.76
2022-12-18T06:42:25.869Z,-6.94
2022-12-18T06:44:52.483Z,-7.11
2022-12-18T06:47:19.336Z,-7.16
2022-12-18T06:49:45.846Z,-7.20
2022-12-18T06:52:12.311Z,-7.30
2022-12-18T06:54:38.816Z,-7.28
2022-12-18T06:57:05.270Z,-7.25
2022-12-18T06:59:31.712Z,-7.26
2022-12-18T07:01:58.281Z,-7.32
2022-12-18T07:04:30.521Z,-7.26
2022-12-18T07:06:56.988Z,-7.33
2022-12-18T07:09:23.773Z,-7.35
2022-12-18T07:11:51.034Z,-7.23
2022-12-18T07:14:17.518Z,-7.12
2022-12-18T07:16:44.038Z,-6.99
2022-12-18T07:19:10.642Z,-7.04
2022-12-18T07:21:37.231Z,-7.06
2022-12-18T07:24:03.992Z,-6.89
2022-12-18T07:26:30.532Z,-6.71
2022-12-18T07:28:58.550Z,-6.70
2022-12-18T07:31:26.044Z,-6.67
2022-12-18T07:33:53.166Z,-6.61
2022-12-18T07:36:24.823Z,-6.76
2022-12-18T07:38:53.326Z,-6.60
2022-12-18T07:41:20.402Z,-6.70
2022-12-18T07:43:47.872Z,-6.51
2022-12-18T07:46:15.468Z,-6.33
2022-12-18T07:48:44.237Z,-6.02
2022-12-18T07:51:16.309Z,-6.04
2022-12-18T07:53:43.596Z,-6.20
2022-12-18T07:56:29.071Z,-6.26
2022-12-18T07:58:56.755Z,-6.20
2022-12-18T08:01:23.535Z,-6.20
2022-12-18T08:03:52.260Z,-6.27
2022-12-18T08:06:22.538Z,-6.14
2022-12-18T08:08:54.966Z,-6.12
2022-12-18T08:11:22.571Z,-6.06
2022-12-18T08:13:49.051Z,-6.01
2022-12-18T08:16:16.792Z,-6.05
2022-12-18T08:18:43.354Z,-5.82
2022-12-18T08:21:17.987Z,-5.67
2022-12-18T08:23:45.901Z,-5.25
2022-12-18T08:26:13.365Z,-4.61
2022-12-18T08:28:40.781Z,-3.50
2022-12-18T08:31:08.032Z,-2.58
2022-12-18T08:33:35.263Z,-2.65
2022-12-18T08:36:02.812Z,-2.84
2022-12-18T08:38:29.366Z,-2.57
2022-12-18T08:41:07.885Z,-1.67
2022-12-18T08:43:53.278Z,-1.18
2022-12-18T08:46:22.208Z,-1.23
2022-12-18T08:48:49.291Z,-0.46
2022-12-18T08:51:18.090Z,-0.08
2022-12-18T08:53:45.464Z,0.24
2022-12-18T08:56:13.116Z,-0.14
2022-12-18T08:58:40.039Z,0.13
2022-12-18T09:01:10.144Z,0.37
2022-12-18T09:03:37.511Z,1.02
2022-12-18T09:06:04.548Z,1.18
2022-12-18T09:08:31.049Z,0.84
2022-12-18T09:10:57.578Z,1.37
2022-12-18T09:13:25.017Z,2.35
2022-12-18T09:15:54.523Z,1.87
2022-12-18T09:18:23.275Z,2.23
2022-12-18T09:20:51.260Z,2.09
2022-12-18T09:23:17.815Z,2.34
2022-12-18T09:25:44.372Z,2.18
2022-12-18T09:28:14.015Z,1.88
2022-12-18T09:30:44.140Z,2.66
2022-12-18T09:33:11.107Z,2.51
2022-12-18T09:35:38.340Z,3.09
2022-12-18T09:38:04.944Z,3.23
2022-12-18T09:40:37.002Z,2.94
2022-12-18T09:43:07.581Z,2.42
2022-12-18T09:45:42.780Z,2.59
2022-12-18T09:48:20.788Z,1.83
2022-12-18T09:50:48.060Z,2.10
2022-12-18T09:53:23.020Z,2.34
2022-12-18T09:55:51.245Z,2.69
2022-12-18T09:58:32.582Z,2.80
2022-12-18T10:00:59.104Z,0.63
2022-12-18T10:03:25.680Z,0.81
2022-12-18T10:06:15.038Z,1.06
2022-12-18T10:08:57.900Z,0.23
2022-12-18T10:11:33.268Z,0.51
2022-12-18T10:14:09.540Z,1.16
2022-12-18T10:17:00.627Z,2.35
2022-12-18T10:20:03.841Z,1.56
2022-12-18T10:22:45.494Z,1.55
2022-12-18T10:25:20.613Z,0.72
2022-12-18T10:27:47.537Z,1.40
2022-12-18T10:30:17.081Z,0.88
2022-12-18T10:33:04.338Z,-0.11
2022-12-18T10:35:30.861Z,-0.10
2022-12-18T10:38:07.054Z,-0.98
2022-12-18T10:40:37.192Z,-0.58
2022-12-18T10:43:13.531Z,-0.34
2022-12-18T10:45:40.407Z,-0.65
2022-12-18T10:48:20.363Z,-1.22
2022-12-18T10:53:37.970Z,0.88
2022-12-18T10:56:07.200Z,0.02
2022-12-18T10:58:39.402Z,0.59
2022-12-18T11:01:17.317Z,-0.35
2022-12-18T11:04:00.458Z,0.08
2022-12-18T11:06:29.156Z,0.66
2022-12-18T11:09:00.288Z,1.18
2022-12-18T11:11:27.044Z,0.92
2022-12-18T11:14:01.859Z,-0.14
2022-12-18T11:16:31.674Z,0.68
2022-12-18T11:19:26.247Z,0.12
2022-12-18T11:21:53.035Z,0.57
2022-12-18T11:24:29.188Z,0.35
2022-12-18T11:26:59.921Z,1.06
2022-12-18T11:29:34.723Z,-0.36
2022-12-18T11:32:25.495Z,1.14
2022-12-18T11:35:02.060Z,0.62
2022-12-18T11:37:29.692Z,1.36
2022-12-18T11:40:14.994Z,0.98
2022-12-18T11:43:07.159Z,-1.02
2022-12-18T11:45:43.701Z,0.65
2022-12-18T11:48:19.005Z,0.46
2022-12-18T11:50:52.787Z,0.42
2022-12-18T11:53:20.108Z,0.12
2022-12-18T11:55:51.252Z,0.47
2022-12-18T11:58:43.932Z,-0.85
2022-12-18T12:01:29.213Z,-1.16
2022-12-18T12:04:21.846Z,-0.33
2022-12-18T12:07:14.840Z,-0.31
2022-12-18T12:09:58.528Z,-1.34
2022-12-18T12:12:50.176Z,-0.27
2022-12-18T12:15:43.575Z,-0.07
2022-12-18T12:18:29.911Z,0.28
2022-12-18T12:21:25.645Z,-0.45
2022-12-18T12:23:58.300Z,-1.00
2022-12-18T12:26:37.933Z,-1.71
2022-12-18T12:29:38.320Z,-1.57
2022-12-18T12:32:27.669Z,-0.82
2022-12-18T12:35:09.906Z,-0.88
2022-12-18T12:37:42.359Z,-0.79
2022-12-18T12:40:48.307Z,-1.27
2022-12-18T12:43:14.065Z,-0.56
2022-12-18T12:45:55.731Z,-0.65
2022-12-18T12:48:32.608Z,-0.30
2022-12-18T12:51:02.661Z,-1.41
2022-12-18T12:53:36.676Z,-1.71
2022-12-18T12:56:06.120Z,-1.94
2022-12-18T12:59:18.423Z,-1.94
2022-12-18T13:02:00.610Z,-0.90
2022-12-18T13:04:57.594Z,-2.16
2022-12-18T13:07:39.357Z,-1.88
2022-12-18T13:13:19.483Z,-1.53
2022-12-18T13:16:05.503Z,-1.48
2022-12-18T13:18:33.361Z,-1.84
2022-12-18T13:21:03.256Z,-1.17
2022-12-18T13:23:30.403Z,-1.05
2022-12-18T13:26:27.975Z,-1.22
2022-12-18T13:28:56.808Z,-1.11
2022-12-18T13:31:26.117Z,-1.25
2022-12-18T13:34:27.427Z,-1.35
2022-12-18T13:37:00.419Z,-1.00
2022-12-18T13:39:35.518Z,-0.91
2022-12-18T13:42:05.504Z,-1.13
2022-12-18T13:44:40.329Z,-1.77
2022-12-18T13:47:29.105Z,-1.32
2022-12-18T13:49:56.032Z,-1.96
2022-12-18T13:52:26.226Z,-1.55
2022-12-18T13:54:55.796Z,-1.79
2022-12-18T13:57:30.238Z,-1.64
2022-12-18T13:59:57.733Z,-1.39
2022-12-18T14:02:27.264Z,-1.35
2022-12-18T14:04:55.104Z,-1.06
2022-12-18T14:07:33.124Z,-0.96
2022-12-18T14:10:26.027Z,-1.24
2022-12-18T14:12:57.610Z,-1.10
2022-12-18T14:15:30.013Z,-1.17
2022-12-18T14:18:03.339Z,-1.09
2022-12-18T14:20:32.706Z,-1.50
2022-12-18T14:23:01.141Z,-1.31
2022-12-18T14:25:30.621Z,-1.18
2022-12-18T14:28:14.204Z,-1.18
2022-12-18T14:30:46.788Z,-0.96
2022-12-18T14:33:19.634Z,-1.02
2022-12-18T14:36:01.808Z,-0.82
2022-12-18T14:38:40.774Z,-0.84
2022-12-18T14:41:12.837Z,-0.77
2022-12-18T14:43:43.049Z,-0.64
2022-12-18T14:46:38.458Z,-1.15
2022-12-18T14:49:25.798Z,-1.07
2022-12-18T14:52:08.508Z,-0.88
2022-12-18T14:54:42.589Z,-1.01
2022-12-18T14:57:41.300Z,-0.92
2022-12-18T15:00:17.196Z,-0.85
2022-12-18T15:02:46.040Z,-1.14
2022-12-18T15:05:32.269Z,-0.76
2022-12-18T15:08:01.054Z,-0.85
2022-12-18T15:10:35.135Z,-0.68
2022-12-18T15:13:03.421Z,-0.92
2022-12-18T15:15:41.460Z,-0.94
2022-12-18T15:18:08.169Z,-0.73
2022-12-18T15:20:56.186Z,-0.84
2022-12-18T15:23:28.410Z,-0.53
2022-12-18T15:26:10.075Z,-0.48
2022-12-18T15:28:53.004Z,-0.24
2022-12-18T15:31:32.142Z,0.05
2022-12-18T15:34:00.132Z,-0.12
2022-12-18T15:36:31.114Z,-0.30
2022-12-18T15:39:06.595Z,-0.27
2022-12-18T15:41:37.656Z,-0.18
2022-12-18T15:44:22.969Z,-0.23
2022-12-18T15:46:49.664Z,-0.45
2022-12-18T15:49:16.187Z,-0.45
2022-12-18T15:51:42.973Z,-0.43
2022-12-18T15:54:14.337Z,-0.69
2022-12-18T15:56:59.764Z,-0.82
2022-12-18T15:59:26.620Z,-0.75
2022-12-18T16:02:02.862Z,-0.68
2022-12-18T16:04:30.293Z,-0.63
2022-12-18T16:09:43.422Z,-0.49
2022-12-18T16:12:22.345Z,-0.50
2022-12-18T16:14:49.361Z,-0.41
2022-12-18T16:17:16.441Z,-0.34
2022-12-18T16:19:43.166Z,-0.42
2022-12-18T16:22:21.088Z,-0.51
2022-12-18T16:24:48.627Z,-0.51
2022-12-18T16:27:15.360Z,-0.39
2022-12-18T16:29:42.127Z,-0.37
2022-12-18T16:32:16.279Z,-0.34
2022-12-18T16:34:44.532Z,-0.58
2022-12-18T16:37:13.256Z,-0.63
2022-12-18T16:39:40.804Z,-0.61
2022-12-18T16:42:17.449Z,-0.61
2022-12-18T16:44:44.992Z,-0.58
2022-12-18T16:47:13.250Z,-0.50
2022-12-18T16:49:42.213Z,-0.43
2022-12-18T16:52:09.083Z,-0.41
2022-12-18T16:54:36.560Z,-0.51
2022-12-18T16:57:05.375Z,-0.53
2022-12-18T16:59:32.643Z,-0.52
2022-12-18T17:01:59.347Z,-0.50
2022-12-18T17:04:27.064Z,-0.48
2022-12-18T17:06:53.934Z,-0.79
2022-12-18T17:09:27.716Z,-0.59
2022-12-18T17:11:54.646Z,-0.56
2022-12-18T17:14:24.656Z,-0.67
2022-12-18T17:17:19.170Z,-0.99
2022-12-18T17:19:38.696Z,-0.64
2022-12-18T17:22:05.221Z,-0.53
2022-12-18T17:24:35.063Z,-0.48
2022-12-18T17:27:03.780Z,-0.48
2022-12-18T17:29:30.972Z,-0.36
2022-12-18T17:31:59.272Z,-0.26
2022-12-18T17:34:27.066Z,-0.25
2022-12-18T17:36:53.582Z,-0.18
2022-12-18T17:39:21.263Z,-0.26
2022-12-18T17:41:49.475Z,-0.26
2022-12-18T17:44:17.098Z,-0.38
2022-12-18T17:46:46.025Z,-0.29
2022-12-18T17:49:13.069Z,-0.34
2022-12-18T17:51:39.717Z,-0.24
2022-12-18T17:54:06.463Z,-0.38
2022-12-18T17:56:33.296Z,-0.44
2022-12-18T17:59:00.175Z,-0.44
2022-12-18T18:01:28.027Z,-0.39
2022-12-18T18:03:56.300Z,-0.24
2022-12-18T18:06:23.936Z,-0.08
2022-12-18T18:08:51.075Z,-0.27
2022-12-18T18:11:37.914Z,-0.63
2022-12-18T18:14:14.760Z,-0.31
2022-12-18T18:16:43.960Z,-0.47
2022-12-18T18:19:19.045Z,-0.56
2022-12-18T18:21:47.497Z,-0.35
2022-12-18T18:24:17.805Z,-0.61
2022-12-18T18:26:46.762Z,-0.52
2022-12-18T18:29:17.084Z,-0.03
2022-12-18T18:31:43.951Z,-0.07
2022-12-18T18:34:23.514Z,-0.36
2022-12-18T18:36:50.491Z,-0.61
2022-12-18T18:39:17.550Z,-0.48
2022-12-18T18:41:47.676Z,-0.69
2022-12-18T18:44:15.625Z,-0.80
2022-12-18T18:46:42.149Z,-0.37
2022-12-18T18:49:11.448Z,-0.19
2022-12-18T18:51:37.916Z,0.04
2022-12-18T18:54:04.506Z,-0.07
2022-12-18T18:56:56.559Z,-0.04
2022-12-18T18:59:18.807Z,-0.25
2022-12-18T19:01:48.875Z,-0.23
2022-12-18T19:04:15.581Z,-0.66
2022-12-18T19:06:42.713Z,-0.08
2022-12-18T19:09:09.623Z,0.05
2022-12-18T19:11:54.586Z,-0.10
2022-12-18T19:14:24.048Z,-0.22
2022-12-18T19:16:50.711Z,-0.46
2022-12-18T19:19:20.962Z,-0.37
2022-12-18T19:21:48.259Z,-0.28
2022-12-18T19:24:15.050Z,-0.04
2022-12-18T19:26:41.681Z,-0.13
2022-12-18T19:29:10.966Z,-0.14
2022-12-18T19:31:38.404Z,-0.26
2022-12-18T19:34:06.879Z,-0.07
2022-12-18T19:36:36.061Z,-0.15
2022-12-18T19:39:17.971Z,0.05
2022-12-18T19:41:46.367Z,-0.11
2022-12-18T19:44:14.964Z,0.17
2022-12-18T19:46:42.849Z,0.11
2022-12-18T19:49:16.265Z,-0.26
2022-12-18T19:51:44.745Z,0.02
2022-12-18T19:54:16.723Z,-0.33
2022-12-18T19:56:43.943Z,-0.27
2022-12-18T19:59:10.474Z,0.05
2022-12-18T20:01:37.292Z,0.18
2022-12-18T20:04:04.350Z,0.07
2022-12-18T20:06:34.185Z,0.08
2022-12-18T20:09:04.163Z,-0.06
2022-12-18T20:11:31.954Z,0.06
2022-12-18T20:13:58.797Z,0.11
2022-12-18T20:16:25.503Z,0.18
2022-12-18T20:18:52.373Z,-0.53
2022-12-18T20:21:19.435Z,-0.36
2022-12-18T20:23:46.245Z,-0.47
2022-12-18T20:26:12.917Z,-0.49
2022-12-18T20:28:39.414Z,-0.45
2022-12-18T20:31:13.560Z,-0.07
2022-12-18T20:33:41.987Z,-0.12
2022-12-18T20:36:14.260Z,-0.16
2022-12-18T20:38:42.454Z,-0.34
2022-12-18T20:41:16.582Z,-0.55
2022-12-18T20:43:43.581Z,-0.58
2022-12-18T20:46:13.542Z,-0.53
2022-12-18T20:48:40.796Z,-0.51
2022-12-18T20:51:17.044Z,-0.62
2022-12-18T20:53:45.359Z,-0.29
2022-12-18T20:56:17.826Z,-0.47
2022-12-18T20:58:49.128Z,-0.47
2022-12-18T21:01:18.777Z,-0.65
2022-12-18T21:03:46.772Z,-0.53
2022-12-18T21:06:16.868Z,-0.08
2022-12-18T21:08:44.199Z,-0.43
2022-12-18T21:11:41.260Z,-0.41
2022-12-18T21:14:19.843Z,-0.51
2022-12-18T21:16:47.921Z,-0.31
2022-12-18T21:19:20.613Z,-0.24
2022-12-18T21:21:47.339Z,-0.55
2022-12-18T21:24:14.175Z,-0.86
2022-12-18T21:26:45.395Z,-0.54
2022-12-18T21:29:19.270Z,-0.31
2022-12-18T21:31:46.202Z,-0.18
2022-12-18T21:34:21.399Z,-0.11
2022-12-18T21:36:48.553Z,-0.41
2022-12-18T21:39:15.835Z,-0.48
2022-12-18T21:42:01.539Z,-0.26
2022-12-18T21:44:28.691Z,0.02
2022-12-18T21:47:00.617Z,-0.57
2022-12-18T21:49:33.298Z,-0.80
2022-12-18T21:52:00.797Z,-0.10
2022-12-18T21:54:28.701Z,0.01
2022-12-18T21:56:58.948Z,0.13
2022-12-18T21:59:34.001Z,0.04
2022-12-18T22:02:10.604Z,-0.15
2022-12-18T22:04:37.333Z,0.17
2022-12-18T22:07:05.182Z,-0.10
2022-12-18T22:09:32.449Z,-0.22
2022-12-18T22:11:59.094Z,0.18
2022-12-18T22:14:25.932Z,0.26
2022-12-18T22:16:52.938Z,0.39
2022-12-18T22:19:20.070Z,0.15
2022-12-18T22:21:48.632Z,0.13
2022-12-18T22:24:22.669Z,0.16
2022-12-18T22:26:51.299Z,0.30
2022-12-18T22:29:41.921Z,0.11
2022-12-18T22:32:11.551Z,0.34
2022-12-18T22:34:40.128Z,0.38
2022-12-18T22:37:06.682Z,0.39
2022-12-18T22:39:33.221Z,0.07
2022-12-18T22:42:00.184Z,0.36
2022-12-18T22:44:26.919Z,0.45
2022-12-18T22:47:05.550Z,0.68
2022-12-18T22:49:33.870Z,0.48
2022-12-18T22:52:01.593Z,0.70
2022-12-18T22:54:28.105Z,0.63
2022-12-18T22:56:55.387Z,0.47
2022-12-18T22:59:23.267Z,0.50
2022-12-18T23:01:51.491Z,0.16
2022-12-18T23:04:28.457Z,0.37
2022-12-18T23:07:02.722Z,0.69
2022-12-18T23:09:29.179Z,-0.09
2022-12-18T23:11:55.643Z,-0.24
2022-12-18T23:14:22.189Z,0.34
2022-12-18T23:16:49.924Z,0.05
2022-12-18T23:19:18.839Z,-0.10
2022-12-18T23:21:45.358Z,0.28
2022-12-18T23:24:11.863Z,0.44
2022-12-18T23:26:38.425Z,0.06
2022-12-18T23:29:05.492Z,0.04
2022-12-18T23:31:34.380Z,0.31
2022-12-18T23:34:02.519Z,0.32
2022-12-18T23:36:29.895Z,0.72
2022-12-18T23:39:00.947Z,0.48
2022-12-18T23:41:32.620Z,-0.02
2022-12-18T23:44:00.186Z,0.40
2022-12-18T23:46:31.716Z,0.43
2022-12-18T23:49:02.901Z,0.07
2022-12-18T23:51:32.492Z,0.54
2022-12-18T23:54:01.356Z,0.07
2022-12-18T23:56:29.849Z,0.35
2022-12-18T23:58:56.722Z,0.33
